sensor_id;sensor_type;location;lat;lon;timestamp;P1;durP1;ratioP1;P2;durP2;ratioP2
13941;SDS011;7043;51.630;7.254;2023-10-13T00:00:25;22.83;;;20.33;;
13941;SDS011;7043;51.630;7.254;2023-10-13T00:02:51;23.35;;;19.00;;
13941;SDS011;7043;51.630;7.254;2023-10-13T00:05:18;23.35;;;19.23;;
13941;SDS011;7043;51.630;7.254;2023-10-13T00:07:44;22.17;;;18.80;;
13941;SDS011;7043;51.630;7.254;2023-10-13T00:10:10;22.40;;;19.40;;
13941;SDS011;7043;51.630;7.254;2023-10-13T00:12:37;21.65;;;18.92;;
13941;SDS011;7043;51.630;7.254;2023-10-13T00:15:03;25.38;;;19.13;;
13941;SDS011;7043;51.630;7.254;2023-10-13T00:17:32;21.20;;;18.42;;
13941;SDS011;7043;51.630;7.254;2023-10-13T00:19:58;23.77;;;18.98;;
13941;SDS011;7043;51.630;7.254;2023-10-13T00:22:25;21.40;;;18.60;;
13941;SDS011;7043;51.630;7.254;2023-10-13T00:24:52;21.50;;;19.10;;
13941;SDS011;7043;51.630;7.254;2023-10-13T00:27:23;25.00;;;18.75;;
13941;SDS011;7043;51.630;7.254;2023-10-13T00:30:04;23.40;;;18.73;;
13941;SDS011;7043;51.630;7.254;2023-10-13T00:32:57;22.38;;;19.52;;
13941;SDS011;7043;51.630;7.254;2023-10-13T00:35:26;20.85;;;18.15;;
13941;SDS011;7043;51.630;7.254;2023-10-13T00:38:04;21.20;;;17.40;;
13941;SDS011;7043;51.630;7.254;2023-10-13T00:40:44;19.10;;;17.10;;
13941;SDS011;7043;51.630;7.254;2023-10-13T00:43:16;22.00;;;17.25;;
13941;SDS011;7043;51.630;7.254;2023-10-13T00:45:50;19.50;;;16.70;;
13941;SDS011;7043;51.630;7.254;2023-10-13T00:48:28;17.95;;;16.00;;
13941;SDS011;7043;51.630;7.254;2023-10-13T00:51:02;18.42;;;15.80;;
13941;SDS011;7043;51.630;7.254;2023-10-13T00:53:29;18.05;;;15.65;;
13941;SDS011;7043;51.630;7.254;2023-10-13T00:55:55;19.33;;;15.80;;
13941;SDS011;7043;51.630;7.254;2023-10-13T00:58:21;17.30;;;14.98;;
13941;SDS011;7043;51.630;7.254;2023-10-13T01:00:48;18.92;;;15.40;;
13941;SDS011;7043;51.630;7.254;2023-10-13T01:03:21;17.98;;;15.88;;
13941;SDS011;7043;51.630;7.254;2023-10-13T01:05:52;19.17;;;15.63;;
13941;SDS011;7043;51.630;7.254;2023-10-13T01:08:19;19.20;;;15.48;;
13941;SDS011;7043;51.630;7.254;2023-10-13T01:10:59;16.63;;;14.90;;
13941;SDS011;7043;51.630;7.254;2023-10-13T01:13:25;17.63;;;15.77;;
13941;SDS011;7043;51.630;7.254;2023-10-13T01:15:52;18.25;;;16.38;;
13941;SDS011;7043;51.630;7.254;2023-10-13T01:18:18;18.90;;;17.02;;
13941;SDS011;7043;51.630;7.254;2023-10-13T01:20:45;19.40;;;16.67;;
13941;SDS011;7043;51.630;7.254;2023-10-13T01:23:17;17.40;;;15.60;;
13941;SDS011;7043;51.630;7.254;2023-10-13T01:25:43;17.95;;;15.85;;
13941;SDS011;7043;51.630;7.254;2023-10-13T01:28:09;18.55;;;15.52;;
13941;SDS011;7043;51.630;7.254;2023-10-13T01:30:40;18.25;;;14.75;;
13941;SDS011;7043;51.630;7.254;2023-10-13T01:33:06;21.17;;;15.50;;
13941;SDS011;7043;51.630;7.254;2023-10-13T01:35:34;16.73;;;14.95;;
13941;SDS011;7043;51.630;7.254;2023-10-13T01:38:20;16.75;;;14.90;;
13941;SDS011;7043;51.630;7.254;2023-10-13T01:40:46;17.15;;;14.75;;
13941;SDS011;7043;51.630;7.254;2023-10-13T01:43:16;16.90;;;15.07;;
13941;SDS011;7043;51.630;7.254;2023-10-13T01:45:43;20.05;;;15.02;;
13941;SDS011;7043;51.630;7.254;2023-10-13T01:48:12;19.17;;;14.73;;
13941;SDS011;7043;51.630;7.254;2023-10-13T01:50:41;16.33;;;14.27;;
13941;SDS011;7043;51.630;7.254;2023-10-13T01:53:12;18.75;;;15.10;;
13941;SDS011;7043;51.630;7.254;2023-10-13T01:55:39;16.38;;;14.68;;
13941;SDS011;7043;51.630;7.254;2023-10-13T01:58:14;17.67;;;15.80;;
13941;SDS011;7043;51.630;7.254;2023-10-13T02:00:44;16.75;;;14.98;;
13941;SDS011;7043;51.630;7.254;2023-10-13T02:03:10;20.80;;;16.00;;
13941;SDS011;7043;51.630;7.254;2023-10-13T02:05:41;17.73;;;15.88;;
13941;SDS011;7043;51.630;7.254;2023-10-13T02:08:12;16.58;;;14.57;;
13941;SDS011;7043;51.630;7.254;2023-10-13T02:10:51;18.42;;;15.80;;
13941;SDS011;7043;51.630;7.254;2023-10-13T02:13:18;17.60;;;15.80;;
13941;SDS011;7043;51.630;7.254;2023-10-13T02:15:44;18.33;;;15.55;;
13941;SDS011;7043;51.630;7.254;2023-10-13T02:18:13;18.92;;;15.25;;
13941;SDS011;7043;51.630;7.254;2023-10-13T02:20:45;17.85;;;14.68;;
13941;SDS011;7043;51.630;7.254;2023-10-13T02:23:11;17.60;;;14.25;;
13941;SDS011;7043;51.630;7.254;2023-10-13T02:25:37;19.95;;;15.52;;
13941;SDS011;7043;51.630;7.254;2023-10-13T02:28:11;17.77;;;15.15;;
13941;SDS011;7043;51.630;7.254;2023-10-13T02:33:09;16.52;;;14.73;;
13941;SDS011;7043;51.630;7.254;2023-10-13T02:35:36;17.20;;;14.43;;
13941;SDS011;7043;51.630;7.254;2023-10-13T02:38:06;16.58;;;14.70;;
13941;SDS011;7043;51.630;7.254;2023-10-13T02:40:36;16.02;;;14.32;;
13941;SDS011;7043;51.630;7.254;2023-10-13T02:43:02;16.88;;;14.95;;
13941;SDS011;7043;51.630;7.254;2023-10-13T02:45:30;16.88;;;14.60;;
13941;SDS011;7043;51.630;7.254;2023-10-13T02:47:55;16.92;;;14.45;;
13941;SDS011;7043;51.630;7.254;2023-10-13T02:50:58;18.45;;;14.27;;
13941;SDS011;7043;51.630;7.254;2023-10-13T02:53:31;17.83;;;14.73;;
13941;SDS011;7043;51.630;7.254;2023-10-13T02:55:57;16.30;;;14.63;;
13941;SDS011;7043;51.630;7.254;2023-10-13T02:58:29;15.80;;;14.20;;
13941;SDS011;7043;51.630;7.254;2023-10-13T03:01:03;20.08;;;14.70;;
13941;SDS011;7043;51.630;7.254;2023-10-13T03:03:41;16.30;;;14.48;;
13941;SDS011;7043;51.630;7.254;2023-10-13T03:06:08;17.25;;;15.45;;
13941;SDS011;7043;51.630;7.254;2023-10-13T03:08:37;15.68;;;14.07;;
13941;SDS011;7043;51.630;7.254;2023-10-13T03:11:03;15.60;;;13.68;;
13941;SDS011;7043;51.630;7.254;2023-10-13T03:13:30;20.23;;;15.20;;
13941;SDS011;7043;51.630;7.254;2023-10-13T03:15:58;16.58;;;14.88;;
13941;SDS011;7043;51.630;7.254;2023-10-13T03:18:24;17.27;;;14.63;;
13941;SDS011;7043;51.630;7.254;2023-10-13T03:20:51;19.05;;;15.10;;
13941;SDS011;7043;51.630;7.254;2023-10-13T03:23:22;16.42;;;14.43;;
13941;SDS011;7043;51.630;7.254;2023-10-13T03:25:50;18.15;;;15.38;;
13941;SDS011;7043;51.630;7.254;2023-10-13T03:28:20;17.35;;;14.75;;
13941;SDS011;7043;51.630;7.254;2023-10-13T03:30:50;19.58;;;16.05;;
13941;SDS011;7043;51.630;7.254;2023-10-13T03:33:20;17.67;;;15.00;;
13941;SDS011;7043;51.630;7.254;2023-10-13T03:35:52;17.05;;;14.98;;
13941;SDS011;7043;51.630;7.254;2023-10-13T03:38:19;17.55;;;14.82;;
13941;SDS011;7043;51.630;7.254;2023-10-13T03:40:51;17.05;;;15.25;;
13941;SDS011;7043;51.630;7.254;2023-10-13T03:43:21;18.77;;;15.57;;
13941;SDS011;7043;51.630;7.254;2023-10-13T03:45:48;17.45;;;15.45;;
13941;SDS011;7043;51.630;7.254;2023-10-13T03:48:18;16.77;;;15.00;;
13941;SDS011;7043;51.630;7.254;2023-10-13T03:50:50;18.65;;;16.13;;
13941;SDS011;7043;51.630;7.254;2023-10-13T03:53:27;18.52;;;15.30;;
13941;SDS011;7043;51.630;7.254;2023-10-13T03:55:58;17.02;;;15.23;;
13941;SDS011;7043;51.630;7.254;2023-10-13T03:58:37;20.95;;;17.08;;
13941;SDS011;7043;51.630;7.254;2023-10-13T04:01:18;18.88;;;16.17;;
13941;SDS011;7043;51.630;7.254;2023-10-13T04:03:49;19.80;;;17.42;;
13941;SDS011;7043;51.630;7.254;2023-10-13T04:06:23;18.35;;;16.42;;
13941;SDS011;7043;51.630;7.254;2023-10-13T04:09:09;20.38;;;18.08;;
13941;SDS011;7043;51.630;7.254;2023-10-13T04:11:54;21.38;;;18.23;;
13941;SDS011;7043;51.630;7.254;2023-10-13T04:14:26;20.52;;;18.35;;
13941;SDS011;7043;51.630;7.254;2023-10-13T04:17:11;20.58;;;18.23;;
13941;SDS011;7043;51.630;7.254;2023-10-13T04:19:39;21.17;;;18.23;;
13941;SDS011;7043;51.630;7.254;2023-10-13T04:22:25;18.80;;;16.90;;
13941;SDS011;7043;51.630;7.254;2023-10-13T04:25:32;20.35;;;17.95;;
13941;SDS011;7043;51.630;7.254;2023-10-13T04:28:10;18.75;;;16.92;;
13941;SDS011;7043;51.630;7.254;2023-10-13T04:30:43;20.27;;;18.10;;
13941;SDS011;7043;51.630;7.254;2023-10-13T04:33:21;21.77;;;19.67;;
13941;SDS011;7043;51.630;7.254;2023-10-13T04:36:03;19.13;;;17.13;;
13941;SDS011;7043;51.630;7.254;2023-10-13T04:38:45;20.05;;;17.33;;
13941;SDS011;7043;51.630;7.254;2023-10-13T04:44:01;18.80;;;17.00;;
13941;SDS011;7043;51.630;7.254;2023-10-13T04:46:48;19.85;;;17.75;;
13941;SDS011;7043;51.630;7.254;2023-10-13T04:49:14;18.52;;;16.70;;
13941;SDS011;7043;51.630;7.254;2023-10-13T04:51:59;19.10;;;17.17;;
13941;SDS011;7043;51.630;7.254;2023-10-13T04:54:44;18.20;;;16.42;;
13941;SDS011;7043;51.630;7.254;2023-10-13T04:57:18;19.15;;;17.20;;
13941;SDS011;7043;51.630;7.254;2023-10-13T04:59:59;19.95;;;17.75;;
13941;SDS011;7043;51.630;7.254;2023-10-13T05:02:29;18.77;;;16.77;;
13941;SDS011;7043;51.630;7.254;2023-10-13T05:05:04;18.48;;;16.50;;
13941;SDS011;7043;51.630;7.254;2023-10-13T05:07:34;17.92;;;16.20;;
13941;SDS011;7043;51.630;7.254;2023-10-13T05:10:18;19.20;;;16.85;;
13941;SDS011;7043;51.630;7.254;2023-10-13T05:13:03;20.27;;;16.45;;
13941;SDS011;7043;51.630;7.254;2023-10-13T05:15:48;20.05;;;17.13;;
13941;SDS011;7043;51.630;7.254;2023-10-13T05:18:33;19.35;;;17.33;;
13941;SDS011;7043;51.630;7.254;2023-10-13T05:21:18;21.75;;;17.90;;
13941;SDS011;7043;51.630;7.254;2023-10-13T05:24:03;20.63;;;17.33;;
13941;SDS011;7043;51.630;7.254;2023-10-13T05:26:48;19.83;;;16.73;;
13941;SDS011;7043;51.630;7.254;2023-10-13T05:29:32;19.08;;;17.08;;
13941;SDS011;7043;51.630;7.254;2023-10-13T05:32:17;19.90;;;16.60;;
13941;SDS011;7043;51.630;7.254;2023-10-13T05:35:02;19.55;;;16.40;;
13941;SDS011;7043;51.630;7.254;2023-10-13T05:37:47;20.35;;;15.82;;
13941;SDS011;7043;51.630;7.254;2023-10-13T05:40:32;19.63;;;16.83;;
13941;SDS011;7043;51.630;7.254;2023-10-13T05:43:17;19.33;;;16.55;;
13941;SDS011;7043;51.630;7.254;2023-10-13T05:46:03;22.80;;;17.02;;
13941;SDS011;7043;51.630;7.254;2023-10-13T05:48:47;18.45;;;16.33;;
13941;SDS011;7043;51.630;7.254;2023-10-13T05:51:39;19.65;;;16.77;;
13941;SDS011;7043;51.630;7.254;2023-10-13T05:54:13;19.70;;;17.60;;
13941;SDS011;7043;51.630;7.254;2023-10-13T05:56:43;18.83;;;16.63;;
13941;SDS011;7043;51.630;7.254;2023-10-13T05:59:28;20.58;;;17.30;;
13941;SDS011;7043;51.630;7.254;2023-10-13T06:02:15;19.80;;;16.90;;
13941;SDS011;7043;51.630;7.254;2023-10-13T06:05:07;19.90;;;15.82;;
13941;SDS011;7043;51.630;7.254;2023-10-13T06:07:52;19.90;;;17.65;;
13941;SDS011;7043;51.630;7.254;2023-10-13T06:10:37;18.13;;;16.25;;
13941;SDS011;7043;51.630;7.254;2023-10-13T06:13:22;17.67;;;15.82;;
13941;SDS011;7043;51.630;7.254;2023-10-13T06:16:08;19.60;;;15.82;;
13941;SDS011;7043;51.630;7.254;2023-10-13T06:18:53;16.98;;;15.18;;
13941;SDS011;7043;51.630;7.254;2023-10-13T06:21:37;17.27;;;15.25;;
13941;SDS011;7043;51.630;7.254;2023-10-13T06:24:22;18.42;;;15.57;;
13941;SDS011;7043;51.630;7.254;2023-10-13T06:27:07;16.35;;;14.43;;
13941;SDS011;7043;51.630;7.254;2023-10-13T06:29:54;14.85;;;13.20;;
13941;SDS011;7043;51.630;7.254;2023-10-13T06:32:20;15.98;;;13.48;;
13941;SDS011;7043;51.630;7.254;2023-10-13T06:34:50;17.95;;;12.10;;
13941;SDS011;7043;51.630;7.254;2023-10-13T06:37:19;11.68;;;10.18;;
13941;SDS011;7043;51.630;7.254;2023-10-13T06:39:52;15.23;;;11.75;;
13941;SDS011;7043;51.630;7.254;2023-10-13T06:42:21;13.98;;;10.18;;
13941;SDS011;7043;51.630;7.254;2023-10-13T06:44:47;12.75;;;10.30;;
13941;SDS011;7043;51.630;7.254;2023-10-13T06:47:13;13.23;;;9.70;;
13941;SDS011;7043;51.630;7.254;2023-10-13T06:49:40;12.85;;;9.35;;
13941;SDS011;7043;51.630;7.254;2023-10-13T06:52:08;12.75;;;9.38;;
13941;SDS011;7043;51.630;7.254;2023-10-13T06:54:34;14.20;;;9.75;;
13941;SDS011;7043;51.630;7.254;2023-10-13T06:57:00;11.52;;;9.55;;
13941;SDS011;7043;51.630;7.254;2023-10-13T06:59:31;12.27;;;8.60;;
13941;SDS011;7043;51.630;7.254;2023-10-13T07:01:59;12.10;;;8.75;;
13941;SDS011;7043;51.630;7.254;2023-10-13T07:04:34;14.20;;;9.50;;
13941;SDS011;7043;51.630;7.254;2023-10-13T07:07:04;14.20;;;9.13;;
13941;SDS011;7043;51.630;7.254;2023-10-13T07:09:40;12.35;;;7.60;;
13941;SDS011;7043;51.630;7.254;2023-10-13T07:12:06;13.20;;;8.60;;
13941;SDS011;7043;51.630;7.254;2023-10-13T07:14:41;14.52;;;8.43;;
13941;SDS011;7043;51.630;7.254;2023-10-13T07:17:07;10.70;;;8.00;;
13941;SDS011;7043;51.630;7.254;2023-10-13T07:19:33;10.75;;;8.40;;
13941;SDS011;7043;51.630;7.254;2023-10-13T07:22:00;15.20;;;7.90;;
13941;SDS011;7043;51.630;7.254;2023-10-13T07:24:46;13.43;;;7.88;;
13941;SDS011;7043;51.630;7.254;2023-10-13T07:27:16;12.55;;;8.38;;
13941;SDS011;7043;51.630;7.254;2023-10-13T07:29:48;10.30;;;8.35;;
13941;SDS011;7043;51.630;7.254;2023-10-13T07:32:20;14.82;;;7.88;;
13941;SDS011;7043;51.630;7.254;2023-10-13T07:34:52;12.88;;;7.97;;
13941;SDS011;7043;51.630;7.254;2023-10-13T07:37:22;14.13;;;8.55;;
13941;SDS011;7043;51.630;7.254;2023-10-13T07:39:53;13.45;;;7.53;;
13941;SDS011;7043;51.630;7.254;2023-10-13T07:42:22;13.68;;;7.40;;
13941;SDS011;7043;51.630;7.254;2023-10-13T07:44:49;13.27;;;7.70;;
13941;SDS011;7043;51.630;7.254;2023-10-13T07:47:15;13.43;;;8.02;;
13941;SDS011;7043;51.630;7.254;2023-10-13T07:49:43;12.13;;;7.53;;
13941;SDS011;7043;51.630;7.254;2023-10-13T07:52:10;11.75;;;7.60;;
13941;SDS011;7043;51.630;7.254;2023-10-13T07:54:51;13.02;;;9.23;;
13941;SDS011;7043;51.630;7.254;2023-10-13T07:57:24;14.23;;;8.95;;
13941;SDS011;7043;51.630;7.254;2023-10-13T07:59:54;12.07;;;8.60;;
13941;SDS011;7043;51.630;7.254;2023-10-13T08:02:31;12.40;;;9.30;;
13941;SDS011;7043;51.630;7.254;2023-10-13T08:05:14;13.32;;;8.68;;
13941;SDS011;7043;51.630;7.254;2023-10-13T08:07:49;14.82;;;9.77;;
13941;SDS011;7043;51.630;7.254;2023-10-13T08:10:15;14.45;;;8.77;;
13941;SDS011;7043;51.630;7.254;2023-10-13T08:12:42;13.57;;;8.95;;
13941;SDS011;7043;51.630;7.254;2023-10-13T08:15:09;14.10;;;9.43;;
13941;SDS011;7043;51.630;7.254;2023-10-13T08:17:46;10.90;;;9.10;;
13941;SDS011;7043;51.630;7.254;2023-10-13T08:20:12;11.27;;;8.85;;
13941;SDS011;7043;51.630;7.254;2023-10-13T08:22:42;11.50;;;8.43;;
13941;SDS011;7043;51.630;7.254;2023-10-13T08:25:13;13.30;;;8.50;;
13941;SDS011;7043;51.630;7.254;2023-10-13T08:27:49;11.52;;;8.20;;
13941;SDS011;7043;51.630;7.254;2023-10-13T08:30:35;12.80;;;8.57;;
13941;SDS011;7043;51.630;7.254;2023-10-13T08:33:17;12.85;;;7.50;;
13941;SDS011;7043;51.630;7.254;2023-10-13T08:35:43;14.68;;;7.72;;
13941;SDS011;7043;51.630;7.254;2023-10-13T08:38:30;11.45;;;7.40;;
13941;SDS011;7043;51.630;7.254;2023-10-13T08:41:08;12.30;;;7.25;;
13941;SDS011;7043;51.630;7.254;2023-10-13T08:43:40;11.65;;;7.30;;
13941;SDS011;7043;51.630;7.254;2023-10-13T08:46:10;13.10;;;6.80;;
13941;SDS011;7043;51.630;7.254;2023-10-13T08:48:49;12.55;;;6.47;;
13941;SDS011;7043;51.630;7.254;2023-10-13T08:51:16;10.32;;;6.63;;
13941;SDS011;7043;51.630;7.254;2023-10-13T08:53:56;12.75;;;6.85;;
13941;SDS011;7043;51.630;7.254;2023-10-13T08:56:33;10.70;;;6.13;;
13941;SDS011;7043;51.630;7.254;2023-10-13T08:59:00;13.88;;;6.45;;
13941;SDS011;7043;51.630;7.254;2023-10-13T09:04:14;10.77;;;6.13;;
13941;SDS011;7043;51.630;7.254;2023-10-13T09:06:43;12.90;;;5.93;;
13941;SDS011;7043;51.630;7.254;2023-10-13T09:09:15;8.52;;;5.68;;
13941;SDS011;7043;51.630;7.254;2023-10-13T09:12:01;11.30;;;6.20;;
13941;SDS011;7043;51.630;7.254;2023-10-13T09:14:41;12.50;;;6.22;;
13941;SDS011;7043;51.630;7.254;2023-10-13T09:17:12;10.68;;;6.45;;
13941;SDS011;7043;51.630;7.254;2023-10-13T09:19:45;11.65;;;6.28;;
13941;SDS011;7043;51.630;7.254;2023-10-13T09:22:20;8.48;;;5.20;;
13941;SDS011;7043;51.630;7.254;2023-10-13T09:24:56;10.20;;;6.10;;
13941;SDS011;7043;51.630;7.254;2023-10-13T09:27:24;14.35;;;5.95;;
13941;SDS011;7043;51.630;7.254;2023-10-13T09:30:01;12.93;;;6.43;;
13941;SDS011;7043;51.630;7.254;2023-10-13T09:32:46;9.32;;;5.50;;
13941;SDS011;7043;51.630;7.254;2023-10-13T09:35:19;10.88;;;5.55;;
13941;SDS011;7043;51.630;7.254;2023-10-13T09:37:48;12.98;;;5.97;;
13941;SDS011;7043;51.630;7.254;2023-10-13T09:40:15;11.25;;;5.45;;
13941;SDS011;7043;51.630;7.254;2023-10-13T09:43:03;14.70;;;5.85;;
13941;SDS011;7043;51.630;7.254;2023-10-13T09:45:33;11.82;;;5.93;;
13941;SDS011;7043;51.630;7.254;2023-10-13T09:48:09;8.63;;;5.88;;
13941;SDS011;7043;51.630;7.254;2023-10-13T09:50:41;10.98;;;5.57;;
13941;SDS011;7043;51.630;7.254;2023-10-13T09:53:17;9.80;;;5.85;;
13941;SDS011;7043;51.630;7.254;2023-10-13T09:55:44;11.30;;;5.45;;
13941;SDS011;7043;51.630;7.254;2023-10-13T09:58:12;9.90;;;5.38;;
13941;SDS011;7043;51.630;7.254;2023-10-13T10:00:43;13.32;;;5.75;;
13941;SDS011;7043;51.630;7.254;2023-10-13T10:03:13;11.15;;;5.80;;
13941;SDS011;7043;51.630;7.254;2023-10-13T10:05:58;14.32;;;5.72;;
13941;SDS011;7043;51.630;7.254;2023-10-13T10:09:04;12.02;;;6.38;;
13941;SDS011;7043;51.630;7.254;2023-10-13T10:14:12;10.65;;;5.47;;
13941;SDS011;7043;51.630;7.254;2023-10-13T10:16:47;10.88;;;6.00;;
13941;SDS011;7043;51.630;7.254;2023-10-13T10:19:14;13.18;;;6.10;;
13941;SDS011;7043;51.630;7.254;2023-10-13T10:21:40;12.15;;;6.10;;
13941;SDS011;7043;51.630;7.254;2023-10-13T10:27:03;11.75;;;6.32;;
13941;SDS011;7043;51.630;7.254;2023-10-13T10:29:29;10.32;;;6.28;;
13941;SDS011;7043;51.630;7.254;2023-10-13T10:31:57;11.93;;;5.82;;
13941;SDS011;7043;51.630;7.254;2023-10-13T10:34:29;9.38;;;6.50;;
13941;SDS011;7043;51.630;7.254;2023-10-13T10:36:57;10.98;;;6.22;;
13941;SDS011;7043;51.630;7.254;2023-10-13T10:39:36;10.07;;;6.28;;
13941;SDS011;7043;51.630;7.254;2023-10-13T10:42:12;9.50;;;5.68;;
13941;SDS011;7043;51.630;7.254;2023-10-13T10:44:43;10.45;;;6.60;;
13941;SDS011;7043;51.630;7.254;2023-10-13T10:47:12;9.82;;;6.22;;
13941;SDS011;7043;51.630;7.254;2023-10-13T10:49:55;10.80;;;6.15;;
13941;SDS011;7043;51.630;7.254;2023-10-13T10:52:22;10.10;;;6.18;;
13941;SDS011;7043;51.630;7.254;2023-10-13T10:54:57;10.35;;;6.28;;
13941;SDS011;7043;51.630;7.254;2023-10-13T10:57:23;11.18;;;6.40;;
13941;SDS011;7043;51.630;7.254;2023-10-13T10:59:54;11.23;;;6.75;;
13941;SDS011;7043;51.630;7.254;2023-10-13T11:02:36;13.23;;;6.63;;
13941;SDS011;7043;51.630;7.254;2023-10-13T11:05:02;11.50;;;6.63;;
13941;SDS011;7043;51.630;7.254;2023-10-13T11:07:31;9.88;;;6.70;;
13941;SDS011;7043;51.630;7.254;2023-10-13T11:10:09;9.13;;;6.70;;
13941;SDS011;7043;51.630;7.254;2023-10-13T11:12:54;13.45;;;7.00;;
13941;SDS011;7043;51.630;7.254;2023-10-13T11:15:21;11.68;;;7.05;;
13941;SDS011;7043;51.630;7.254;2023-10-13T11:17:50;12.82;;;7.03;;
13941;SDS011;7043;51.630;7.254;2023-10-13T11:20:19;12.75;;;6.60;;
13941;SDS011;7043;51.630;7.254;2023-10-13T11:22:58;15.93;;;10.13;;
13941;SDS011;7043;51.630;7.254;2023-10-13T11:25:26;11.05;;;7.25;;
13941;SDS011;7043;51.630;7.254;2023-10-13T11:28:09;12.80;;;7.15;;
13941;SDS011;7043;51.630;7.254;2023-10-13T11:30:35;11.95;;;7.13;;
13941;SDS011;7043;51.630;7.254;2023-10-13T11:33:14;10.73;;;7.05;;
13941;SDS011;7043;51.630;7.254;2023-10-13T11:35:46;11.38;;;7.65;;
13941;SDS011;7043;51.630;7.254;2023-10-13T11:38:18;12.30;;;7.07;;
13941;SDS011;7043;51.630;7.254;2023-10-13T11:41:00;18.42;;;7.15;;
13941;SDS011;7043;51.630;7.254;2023-10-13T11:43:29;11.55;;;7.57;;
13941;SDS011;7043;51.630;7.254;2023-10-13T11:45:59;14.25;;;7.90;;
13941;SDS011;7043;51.630;7.254;2023-10-13T11:48:47;14.77;;;8.15;;
13941;SDS011;7043;51.630;7.254;2023-10-13T11:51:19;14.35;;;7.55;;
13941;SDS011;7043;51.630;7.254;2023-10-13T11:53:57;12.38;;;7.38;;
13941;SDS011;7043;51.630;7.254;2023-10-13T11:56:23;11.02;;;7.60;;
13941;SDS011;7043;51.630;7.254;2023-10-13T11:58:49;14.40;;;8.02;;
13941;SDS011;7043;51.630;7.254;2023-10-13T12:01:16;13.90;;;7.72;;
13941;SDS011;7043;51.630;7.254;2023-10-13T12:03:49;12.40;;;8.02;;
13941;SDS011;7043;51.630;7.254;2023-10-13T12:06:34;10.57;;;7.10;;
13941;SDS011;7043;51.630;7.254;2023-10-13T12:09:01;13.50;;;7.18;;
13941;SDS011;7043;51.630;7.254;2023-10-13T12:11:42;12.57;;;8.00;;
13941;SDS011;7043;51.630;7.254;2023-10-13T12:14:10;12.80;;;7.60;;
13941;SDS011;7043;51.630;7.254;2023-10-13T12:16:44;12.35;;;7.40;;
13941;SDS011;7043;51.630;7.254;2023-10-13T12:19:17;12.57;;;7.40;;
13941;SDS011;7043;51.630;7.254;2023-10-13T12:21:43;10.93;;;7.57;;
13941;SDS011;7043;51.630;7.254;2023-10-13T12:24:11;11.40;;;6.80;;
13941;SDS011;7043;51.630;7.254;2023-10-13T12:26:48;12.90;;;6.90;;
13941;SDS011;7043;51.630;7.254;2023-10-13T12:29:20;13.88;;;7.28;;
13941;SDS011;7043;51.630;7.254;2023-10-13T12:31:48;13.75;;;6.78;;
13941;SDS011;7043;51.630;7.254;2023-10-13T12:34:46;13.40;;;7.38;;
13941;SDS011;7043;51.630;7.254;2023-10-13T12:37:33;10.68;;;6.38;;
13941;SDS011;7043;51.630;7.254;2023-10-13T12:40:09;12.23;;;5.90;;
13941;SDS011;7043;51.630;7.254;2023-10-13T12:42:54;9.73;;;6.88;;
13941;SDS011;7043;51.630;7.254;2023-10-13T12:45:42;13.65;;;7.18;;
13941;SDS011;7043;51.630;7.254;2023-10-13T12:48:27;13.02;;;7.38;;
13941;SDS011;7043;51.630;7.254;2023-10-13T12:51:11;12.93;;;7.38;;
13941;SDS011;7043;51.630;7.254;2023-10-13T12:54:05;12.00;;;6.05;;
13941;SDS011;7043;51.630;7.254;2023-10-13T12:56:44;15.52;;;6.25;;
13941;SDS011;7043;51.630;7.254;2023-10-13T12:59:10;13.13;;;6.25;;
13941;SDS011;7043;51.630;7.254;2023-10-13T13:01:38;15.25;;;7.22;;
13941;SDS011;7043;51.630;7.254;2023-10-13T13:04:07;13.10;;;6.25;;
13941;SDS011;7043;51.630;7.254;2023-10-13T13:06:43;13.32;;;7.03;;
13941;SDS011;7043;51.630;7.254;2023-10-13T13:09:09;11.68;;;6.55;;
13941;SDS011;7043;51.630;7.254;2023-10-13T13:11:35;15.10;;;6.35;;
13941;SDS011;7043;51.630;7.254;2023-10-13T13:14:08;12.75;;;6.18;;
13941;SDS011;7043;51.630;7.254;2023-10-13T13:16:34;12.68;;;6.88;;
13941;SDS011;7043;51.630;7.254;2023-10-13T13:19:00;12.48;;;5.65;;
13941;SDS011;7043;51.630;7.254;2023-10-13T13:21:37;17.48;;;7.18;;
13941;SDS011;7043;51.630;7.254;2023-10-13T13:24:04;17.58;;;6.72;;
13941;SDS011;7043;51.630;7.254;2023-10-13T13:26:36;13.80;;;5.90;;
13941;SDS011;7043;51.630;7.254;2023-10-13T13:29:05;14.40;;;6.38;;
13941;SDS011;7043;51.630;7.254;2023-10-13T13:31:34;14.52;;;6.20;;
13941;SDS011;7043;51.630;7.254;2023-10-13T13:34:06;11.73;;;6.25;;
13941;SDS011;7043;51.630;7.254;2023-10-13T13:36:34;13.32;;;5.95;;
13941;SDS011;7043;51.630;7.254;2023-10-13T13:39:00;12.73;;;6.70;;
13941;SDS011;7043;51.630;7.254;2023-10-13T13:41:26;15.07;;;6.28;;
13941;SDS011;7043;51.630;7.254;2023-10-13T13:43:52;16.83;;;7.57;;
13941;SDS011;7043;51.630;7.254;2023-10-13T13:46:25;11.90;;;6.30;;
13941;SDS011;7043;51.630;7.254;2023-10-13T13:48:58;19.15;;;6.75;;
13941;SDS011;7043;51.630;7.254;2023-10-13T13:51:25;15.98;;;6.65;;
13941;SDS011;7043;51.630;7.254;2023-10-13T13:53:55;15.20;;;7.15;;
13941;SDS011;7043;51.630;7.254;2023-10-13T13:56:22;15.43;;;6.57;;
13941;SDS011;7043;51.630;7.254;2023-10-13T13:58:50;16.20;;;5.85;;
13941;SDS011;7043;51.630;7.254;2023-10-13T14:01:17;11.88;;;6.40;;
13941;SDS011;7043;51.630;7.254;2023-10-13T14:03:52;13.75;;;6.25;;
13941;SDS011;7043;51.630;7.254;2023-10-13T14:06:22;13.25;;;5.90;;
13941;SDS011;7043;51.630;7.254;2023-10-13T14:08:49;15.45;;;6.18;;
13941;SDS011;7043;51.630;7.254;2023-10-13T14:11:16;15.95;;;6.18;;
13941;SDS011;7043;51.630;7.254;2023-10-13T14:14:03;13.23;;;6.25;;
13941;SDS011;7043;51.630;7.254;2023-10-13T14:16:29;13.38;;;5.72;;
13941;SDS011;7043;51.630;7.254;2023-10-13T14:18:58;13.63;;;7.03;;
13941;SDS011;7043;51.630;7.254;2023-10-13T14:21:32;16.15;;;6.53;;
13941;SDS011;7043;51.630;7.254;2023-10-13T14:24:00;16.48;;;5.82;;
13941;SDS011;7043;51.630;7.254;2023-10-13T14:26:27;12.75;;;6.10;;
13941;SDS011;7043;51.630;7.254;2023-10-13T14:28:53;15.15;;;5.60;;
13941;SDS011;7043;51.630;7.254;2023-10-13T14:31:35;12.02;;;5.13;;
13941;SDS011;7043;51.630;7.254;2023-10-13T14:34:07;13.73;;;5.22;;
13941;SDS011;7043;51.630;7.254;2023-10-13T14:36:33;20.63;;;6.90;;
13941;SDS011;7043;51.630;7.254;2023-10-13T14:38:59;13.20;;;5.80;;
13941;SDS011;7043;51.630;7.254;2023-10-13T14:41:28;14.55;;;6.32;;
13941;SDS011;7043;51.630;7.254;2023-10-13T14:43:56;13.60;;;6.28;;
13941;SDS011;7043;51.630;7.254;2023-10-13T14:46:34;12.35;;;5.75;;
13941;SDS011;7043;51.630;7.254;2023-10-13T14:49:01;14.55;;;5.75;;
13941;SDS011;7043;51.630;7.254;2023-10-13T14:51:27;15.27;;;6.07;;
13941;SDS011;7043;51.630;7.254;2023-10-13T14:53:54;14.25;;;5.80;;
13941;SDS011;7043;51.630;7.254;2023-10-13T14:56:21;10.00;;;5.47;;
13941;SDS011;7043;51.630;7.254;2023-10-13T14:58:50;15.52;;;5.57;;
13941;SDS011;7043;51.630;7.254;2023-10-13T15:01:17;14.45;;;6.13;;
13941;SDS011;7043;51.630;7.254;2023-10-13T15:03:43;15.93;;;6.10;;
13941;SDS011;7043;51.630;7.254;2023-10-13T15:06:19;13.43;;;5.80;;
13941;SDS011;7043;51.630;7.254;2023-10-13T15:08:46;15.40;;;6.07;;
13941;SDS011;7043;51.630;7.254;2023-10-13T15:11:15;15.80;;;6.20;;
13941;SDS011;7043;51.630;7.254;2023-10-13T15:13:44;13.10;;;5.85;;
13941;SDS011;7043;51.630;7.254;2023-10-13T15:16:19;16.92;;;6.72;;
13941;SDS011;7043;51.630;7.254;2023-10-13T15:18:46;13.38;;;5.72;;
13941;SDS011;7043;51.630;7.254;2023-10-13T15:21:19;14.27;;;5.57;;
13941;SDS011;7043;51.630;7.254;2023-10-13T15:23:47;12.98;;;5.78;;
13941;SDS011;7043;51.630;7.254;2023-10-13T15:26:13;13.00;;;5.28;;
13941;SDS011;7043;51.630;7.254;2023-10-13T15:28:40;14.48;;;5.68;;
13941;SDS011;7043;51.630;7.254;2023-10-13T15:31:20;11.75;;;5.50;;